KERV/ERV METAR and TAF weather

Enter ICAO airport designator
Station Type Date Time Source
KERV METAR 2022/08/16 18:35 UTC NOAA

KERV 161835Z AUTO 18011G17KT 10SM SCT049 32/18 A3002 RMK AO2 T03230182


Station Type Date Time Source
KERV Decoded METAR 2022/08/16 18:35 UTC NOAA

Kerrville, Kerrville Municipal Airport/Louis Schreiner Field, TX, United States (KERV) 29-58N 099-05W
Aug 16, 2022 - 02:35 PM EDT / 2022.08.16 1835 UTC
Wind: from the S (180 degrees) at 13 MPH (11 KT) gusting to 20 MPH (17 KT):0
Visibility: 10 mile(s):0
Sky conditions: partly cloudy
Temperature: 90.1 F (32.3 C)
Dew Point: 64.8 F (18.2 C)
Relative Humidity: 43%
Pressure (altimeter): 30.02 in. Hg (1016 hPa)
ob: KERV 161835Z AUTO 18011G17KT 10SM SCT049 32/18 A3002 RMK AO2 T03230182
cycle: 18

Station Type Date Time Source
KERV TAF UTC NOAA

Error!

Example: see airport list